Time;durP1;ratioP1;P1;durP2;ratioP2;P2;SDS_P1;SDS_P2;PMS_P1;PMS_P2;Temp;Humidity;BMP_temperature;BMP_pressure;BME280_temperature;BME280_humidity;BME280_pressure;Samples;Min_cycle;Max_cycle;Signal;HPM_P1;HPM_P2
2022/10/22 00:00:25;;;;;;;11.38;6.88;;;;;;;;;;4977141;28;20034;-62
2022/10/22 00:02:50;;;;;;;13.10;6.63;;;;;;;;;;4977905;28;20033;-62
2022/10/22 00:05:16;;;;;;;9.60;6.13;;;;;;;;;;4975313;28;20073;-62
2022/10/22 00:07:41;;;;;;;10.63;6.40;;;;;;;;;;4974102;28;20054;-62
2022/10/22 00:10:07;;;;;;;8.60;5.70;;;;;;;;;;4989624;28;20109;-62
2022/10/22 00:12:33;;;;;;;10.20;6.18;;;;;;;;;;4993530;28;20455;-62
2022/10/22 00:14:59;;;;;;;11.18;5.97;;;;;;;;;;4988364;28;20084;-62
2022/10/22 00:17:24;;;;;;;9.98;6.05;;;;;;;;;;4982495;28;20065;-61
2022/10/22 00:19:49;;;;;;;11.27;5.95;;;;;;;;;;4984408;28;20030;-61
2022/10/22 00:22:15;;;;;;;10.85;5.75;;;;;;;;;;4985549;28;20054;-61
2022/10/22 00:24:41;;;;;;;9.95;6.18;;;;;;;;;;4974302;28;20093;-62
2022/10/22 00:27:08;;;;;;;9.07;5.60;;;;;;;;;;5008612;28;20144;-62
2022/10/22 00:29:34;;;;;;;10.82;5.90;;;;;;;;;;4994462;28;20046;-62
2022/10/22 00:32:01;;;;;;;11.13;6.03;;;;;;;;;;4990312;28;20031;-62
2022/10/22 00:34:26;;;;;;;9.48;5.88;;;;;;;;;;4974870;28;20037;-61
2022/10/22 00:36:51;;;;;;;7.95;5.32;;;;;;;;;;4973934;28;20035;-62
2022/10/22 00:39:19;;;;;;;11.02;6.43;;;;;;;;;;4983307;28;20035;-62
2022/10/22 00:41:45;;;;;;;8.90;5.53;;;;;;;;;;5009228;28;20483;-62
2022/10/22 00:44:49;;;;;;;9.80;5.80;;;;;;;;;;4993509;28;20043;-62
2022/10/22 00:47:15;;;;;;;9.80;5.40;;;;;;;;;;4989229;28;20034;-61
2022/10/22 00:49:41;;;;;;;8.70;5.18;;;;;;;;;;4978641;28;20034;-63
2022/10/22 00:52:07;;;;;;;10.35;5.30;;;;;;;;;;4987254;28;20034;-61
2022/10/22 00:54:33;;;;;;;13.77;5.55;;;;;;;;;;5004305;28;20045;-64
2022/10/22 00:56:59;;;;;;;7.88;5.40;;;;;;;;;;4977489;28;20022;-62
2022/10/22 00:59:25;;;;;;;9.88;5.30;;;;;;;;;;5008897;28;20061;-61
2022/10/22 01:01:52;;;;;;;13.30;5.03;;;;;;;;;;5004478;28;20506;-61
2022/10/22 01:04:19;;;;;;;8.52;4.95;;;;;;;;;;4998363;28;20442;-61
2022/10/22 01:06:44;;;;;;;7.32;4.75;;;;;;;;;;4990325;28;20113;-62
2022/10/22 01:09:28;;;;;;;12.02;5.07;;;;;;;;;;4973573;28;20458;-62
2022/10/22 01:12:17;;;;;;;8.93;5.00;;;;;;;;;;4973585;28;20512;-62
2022/10/22 01:15:06;;;;;;;10.48;5.05;;;;;;;;;;4993573;28;20058;-64
2022/10/22 01:17:39;;;;;;;8.52;4.70;;;;;;;;;;4986998;28;20478;-62
2022/10/22 01:20:26;;;;;;;10.45;5.07;;;;;;;;;;5013056;28;20045;-61
2022/10/22 01:23:01;;;;;;;7.93;5.10;;;;;;;;;;4989306;28;20546;-62
2022/10/22 01:25:32;;;;;;;9.50;5.00;;;;;;;;;;4974228;28;20063;-61
2022/10/22 01:28:33;;;;;;;10.20;4.82;;;;;;;;;;4991997;28;20039;-62
2022/10/22 01:31:02;;;;;;;9.60;4.70;;;;;;;;;;4995508;28;20026;-62
2022/10/22 01:33:29;;;;;;;6.95;4.93;;;;;;;;;;4976145;28;20039;-61
2022/10/22 01:35:56;;;;;;;9.13;4.68;;;;;;;;;;4981965;28;20497;-62
2022/10/22 01:38:23;;;;;;;13.40;5.90;;;;;;;;;;4990588;28;20058;-62
2022/10/22 01:40:50;;;;;;;8.75;5.30;;;;;;;;;;4994607;28;20130;-62
2022/10/22 01:43:15;;;;;;;12.57;5.57;;;;;;;;;;4988434;28;20042;-62
2022/10/22 01:45:44;;;;;;;8.68;4.97;;;;;;;;;;4974547;28;20101;-63
2022/10/22 01:48:49;;;;;;;8.15;5.57;;;;;;;;;;4972749;28;20484;-61
2022/10/22 01:52:01;;;;;;;9.00;5.20;;;;;;;;;;4984254;28;20042;-62
2022/10/22 01:54:50;;;;;;;11.30;5.43;;;;;;;;;;5000615;28;20536;-61
2022/10/22 01:57:47;;;;;;;9.65;4.93;;;;;;;;;;4972468;28;20055;-61
2022/10/22 02:00:16;;;;;;;8.60;5.25;;;;;;;;;;4972384;28;20034;-62
2022/10/22 02:03:03;;;;;;;8.05;4.93;;;;;;;;;;4972685;28;20109;-62
2022/10/22 02:05:38;;;;;;;7.00;4.60;;;;;;;;;;4973885;28;20483;-62
2022/10/22 02:08:09;;;;;;;8.00;5.15;;;;;;;;;;4988518;28;20081;-64
2022/10/22 02:10:38;;;;;;;12.98;5.80;;;;;;;;;;4993292;28;20038;-62
2022/10/22 02:13:08;;;;;;;9.30;5.25;;;;;;;;;;4974631;28;20058;-62
2022/10/22 02:15:35;;;;;;;9.02;5.50;;;;;;;;;;4998162;28;20031;-62
2022/10/22 02:18:03;;;;;;;9.07;5.40;;;;;;;;;;4971010;28;20039;-62
2022/10/22 02:20:31;;;;;;;11.23;6.00;;;;;;;;;;5012241;28;20028;-61
2022/10/22 02:22:59;;;;;;;12.82;5.80;;;;;;;;;;5002567;28;20097;-63
2022/10/22 02:25:28;;;;;;;9.93;5.88;;;;;;;;;;4973071;28;20542;-62
2022/10/22 02:28:07;;;;;;;11.00;5.75;;;;;;;;;;4975825;28;20036;-62
2022/10/22 02:30:36;;;;;;;9.40;5.60;;;;;;;;;;4987886;28;20395;-61
2022/10/22 02:33:25;;;;;;;10.00;5.97;;;;;;;;;;4986256;28;20037;-63
2022/10/22 02:35:51;;;;;;;13.63;6.00;;;;;;;;;;4972174;28;20062;-63
2022/10/22 02:38:18;;;;;;;15.45;6.55;;;;;;;;;;4978983;28;20463;-62
2022/10/22 02:40:44;;;;;;;15.20;6.30;;;;;;;;;;4979444;28;20364;-62
2022/10/22 02:43:09;;;;;;;13.32;6.07;;;;;;;;;;5002799;28;20040;-62
2022/10/22 02:45:34;;;;;;;11.48;5.90;;;;;;;;;;4984104;28;20034;-62
2022/10/22 02:48:00;;;;;;;12.45;6.18;;;;;;;;;;4970671;28;20035;-63
2022/10/22 02:50:26;;;;;;;12.68;6.45;;;;;;;;;;4972722;28;20117;-62
2022/10/22 02:52:51;;;;;;;8.10;5.20;;;;;;;;;;4971852;28;20066;-63
2022/10/22 02:55:17;;;;;;;10.20;5.47;;;;;;;;;;5009347;28;20475;-62
2022/10/22 02:57:42;;;;;;;10.60;5.53;;;;;;;;;;5009601;28;20046;-63
2022/10/22 03:00:10;;;;;;;7.97;5.22;;;;;;;;;;4971343;28;20093;-62
2022/10/22 03:02:35;;;;;;;9.40;5.32;;;;;;;;;;4974165;28;20035;-62
2022/10/22 03:05:01;;;;;;;11.52;5.75;;;;;;;;;;4971109;28;20136;-63
2022/10/22 03:07:26;;;;;;;10.90;5.80;;;;;;;;;;4972779;28;20066;-61
2022/10/22 03:09:52;;;;;;;11.40;5.38;;;;;;;;;;5002666;28;20375;-63
2022/10/22 03:12:17;;;;;;;9.20;5.32;;;;;;;;;;5001464;28;20042;-62
2022/10/22 03:14:42;;;;;;;11.52;5.88;;;;;;;;;;4992671;28;20039;-61
2022/10/22 03:17:08;;;;;;;9.02;5.53;;;;;;;;;;4979407;28;20258;-62
2022/10/22 03:19:33;;;;;;;13.48;5.93;;;;;;;;;;4980303;28;20041;-61
2022/10/22 03:22:06;;;;;;;10.00;6.13;;;;;;;;;;4992746;28;20121;-62
2022/10/22 03:24:43;;;;;;;11.25;5.88;;;;;;;;;;5001925;28;20190;-62
2022/10/22 03:27:11;;;;;;;10.25;5.47;;;;;;;;;;4986884;28;20309;-62
2022/10/22 03:29:39;;;;;;;10.00;5.40;;;;;;;;;;4982518;28;20038;-62
2022/10/22 03:32:04;;;;;;;9.57;5.20;;;;;;;;;;4983031;28;20034;-62
2022/10/22 03:34:30;;;;;;;13.40;5.90;;;;;;;;;;4986646;28;20446;-62
2022/10/22 03:36:57;;;;;;;16.40;5.97;;;;;;;;;;4998147;28;20110;-62
2022/10/22 03:39:23;;;;;;;12.90;5.60;;;;;;;;;;4994252;28;20042;-62
2022/10/22 03:41:50;;;;;;;11.30;6.25;;;;;;;;;;4988250;28;20038;-64
2022/10/22 03:44:17;;;;;;;11.82;6.00;;;;;;;;;;5000684;28;20073;-62
2022/10/22 03:46:42;;;;;;;11.68;6.10;;;;;;;;;;4996130;28;20084;-62
2022/10/22 03:49:07;;;;;;;11.18;5.95;;;;;;;;;;4992370;28;20030;-63
2022/10/22 03:51:34;;;;;;;11.55;5.30;;;;;;;;;;4997870;28;20026;-63
2022/10/22 03:54:00;;;;;;;13.27;5.90;;;;;;;;;;5001060;28;20098;-64
2022/10/22 03:56:25;;;;;;;12.20;6.10;;;;;;;;;;4992352;28;20030;-63
2022/10/22 03:58:50;;;;;;;16.00;7.50;;;;;;;;;;4993758;28;20034;-64
2022/10/22 04:01:16;;;;;;;20.75;9.40;;;;;;;;;;4992022;28;20391;-63
2022/10/22 04:03:41;;;;;;;11.55;6.90;;;;;;;;;;4976343;28;20065;-62
2022/10/22 04:06:10;;;;;;;9.35;5.93;;;;;;;;;;4989264;28;20041;-62
2022/10/22 04:08:35;;;;;;;12.57;6.00;;;;;;;;;;4979477;28;20535;-62
2022/10/22 04:11:01;;;;;;;10.25;5.72;;;;;;;;;;4990276;28;20109;-62
2022/10/22 04:13:26;;;;;;;13.65;6.40;;;;;;;;;;4992773;28;20034;-64
2022/10/22 04:15:52;;;;;;;12.02;5.93;;;;;;;;;;4989034;28;20030;-63
2022/10/22 04:18:19;;;;;;;14.02;7.55;;;;;;;;;;4975014;28;20027;-62
2022/10/22 04:20:44;;;;;;;18.20;8.13;;;;;;;;;;5010879;28;20046;-63
2022/10/22 04:23:10;;;;;;;19.80;8.93;;;;;;;;;;4991705;28;20306;-62
2022/10/22 04:25:35;;;;;;;22.00;9.40;;;;;;;;;;5011384;28;20053;-61
2022/10/22 04:28:01;;;;;;;20.05;9.73;;;;;;;;;;5006923;28;20121;-63
2022/10/22 04:30:26;;;;;;;19.10;9.18;;;;;;;;;;4987197;28;20030;-63
2022/10/22 04:32:52;;;;;;;18.50;8.18;;;;;;;;;;5009953;28;20060;-64
2022/10/22 04:35:17;;;;;;;18.58;8.60;;;;;;;;;;5008203;28;20116;-62
2022/10/22 04:37:43;;;;;;;17.98;7.53;;;;;;;;;;5014628;28;20034;-62
2022/10/22 04:40:09;;;;;;;15.43;7.70;;;;;;;;;;5009458;28;20061;-64
2022/10/22 04:42:34;;;;;;;17.13;7.90;;;;;;;;;;4975199;28;20041;-63
2022/10/22 04:44:59;;;;;;;18.25;8.00;;;;;;;;;;5003679;28;20033;-62
2022/10/22 04:47:25;;;;;;;13.98;7.88;;;;;;;;;;5014076;28;20026;-63
2022/10/22 04:49:50;;;;;;;15.43;6.82;;;;;;;;;;5013251;28;20062;-61
2022/10/22 04:52:16;;;;;;;15.55;7.25;;;;;;;;;;5009606;28;20036;-62
2022/10/22 04:54:41;;;;;;;13.52;7.28;;;;;;;;;;5012331;28;20113;-63
2022/10/22 04:57:06;;;;;;;14.55;6.82;;;;;;;;;;5005443;28;20022;-63
2022/10/22 04:59:32;;;;;;;14.48;7.65;;;;;;;;;;4998640;28;20521;-61
2022/10/22 05:01:57;;;;;;;13.95;7.70;;;;;;;;;;5005254;28;20058;-63
2022/10/22 05:04:23;;;;;;;15.23;7.57;;;;;;;;;;5009377;28;20022;-63
2022/10/22 05:06:48;;;;;;;12.43;7.45;;;;;;;;;;5006425;28;20025;-63
2022/10/22 05:09:17;;;;;;;12.60;6.53;;;;;;;;;;5006128;28;20113;-62
2022/10/22 05:11:45;;;;;;;11.75;6.53;;;;;;;;;;4996807;28;20034;-62
2022/10/22 05:14:11;;;;;;;13.82;7.28;;;;;;;;;;5005463;28;20037;-62
2022/10/22 05:16:37;;;;;;;13.95;7.00;;;;;;;;;;4996724;28;20466;-62
2022/10/22 05:19:03;;;;;;;15.68;7.25;;;;;;;;;;5010812;28;20032;-61
2022/10/22 05:21:28;;;;;;;17.92;7.43;;;;;;;;;;5011231;28;20046;-63
2022/10/22 05:23:55;;;;;;;13.00;7.43;;;;;;;;;;5011682;28;20053;-64
2022/10/22 05:26:21;;;;;;;12.13;6.95;;;;;;;;;;5002122;28;20471;-62
2022/10/22 05:28:48;;;;;;;10.80;6.88;;;;;;;;;;4994545;28;20037;-63
2022/10/22 05:31:15;;;;;;;14.75;7.90;;;;;;;;;;5005494;28;20026;-62
2022/10/22 05:33:41;;;;;;;15.10;7.65;;;;;;;;;;5012979;28;20037;-63
2022/10/22 05:36:09;;;;;;;15.35;7.40;;;;;;;;;;5012430;28;20060;-63
2022/10/22 05:38:35;;;;;;;11.80;6.93;;;;;;;;;;5008213;28;20522;-63
2022/10/22 05:41:05;;;;;;;16.42;6.97;;;;;;;;;;5006117;28;20089;-63
2022/10/22 05:43:30;;;;;;;14.35;8.10;;;;;;;;;;5012355;28;20033;-62
2022/10/22 05:46:01;;;;;;;22.85;7.57;;;;;;;;;;4980027;28;20368;-63
2022/10/22 05:48:26;;;;;;;12.65;7.32;;;;;;;;;;4995942;28;20034;-62
2022/10/22 05:50:52;;;;;;;17.15;7.97;;;;;;;;;;5021662;28;20088;-63
2022/10/22 05:53:17;;;;;;;13.93;7.90;;;;;;;;;;5011112;28;20511;-62
2022/10/22 05:55:43;;;;;;;15.75;7.97;;;;;;;;;;5012741;28;20088;-62
2022/10/22 05:58:13;;;;;;;15.88;7.28;;;;;;;;;;5010858;28;20105;-62
2022/10/22 06:00:38;;;;;;;17.13;7.90;;;;;;;;;;5012841;28;20030;-62
2022/10/22 06:03:04;;;;;;;14.23;8.27;;;;;;;;;;5002579;28;20045;-62
2022/10/22 06:05:29;;;;;;;18.38;8.88;;;;;;;;;;5007388;28;20037;-62
2022/10/22 06:07:56;;;;;;;19.08;9.88;;;;;;;;;;5012572;28;20125;-62
2022/10/22 06:10:22;;;;;;;17.80;8.98;;;;;;;;;;5010099;28;20095;-62
2022/10/22 06:12:48;;;;;;;21.95;8.38;;;;;;;;;;5011591;28;20109;-64
2022/10/22 06:15:16;;;;;;;24.85;9.85;;;;;;;;;;5010122;28;20033;-66
2022/10/22 06:17:43;;;;;;;28.58;11.50;;;;;;;;;;5010336;28;20029;-65
2022/10/22 06:20:09;;;;;;;30.83;11.27;;;;;;;;;;5011253;28;20091;-65
2022/10/22 06:22:35;;;;;;;20.90;10.63;;;;;;;;;;5004091;28;20084;-65
2022/10/22 06:25:00;;;;;;;24.25;10.80;;;;;;;;;;4991245;28;20129;-66
2022/10/22 06:27:26;;;;;;;23.33;10.02;;;;;;;;;;5009544;28;20026;-65
2022/10/22 06:29:51;;;;;;;20.83;9.93;;;;;;;;;;5011938;28;20113;-66
2022/10/22 06:32:16;;;;;;;20.30;9.80;;;;;;;;;;5006549;28;20045;-66
2022/10/22 06:34:42;;;;;;;23.45;9.55;;;;;;;;;;4995320;28;20379;-67
2022/10/22 06:37:09;;;;;;;23.60;9.52;;;;;;;;;;5006578;28;20037;-67
2022/10/22 06:39:34;;;;;;;22.48;10.07;;;;;;;;;;5005268;28;20594;-68
2022/10/22 06:42:00;;;;;;;20.00;10.05;;;;;;;;;;5004318;28;20120;-67
2022/10/22 06:44:25;;;;;;;25.85;9.38;;;;;;;;;;5007098;28;20563;-69
2022/10/22 06:46:51;;;;;;;20.73;9.30;;;;;;;;;;5010375;28;20064;-67
2022/10/22 06:49:18;;;;;;;17.45;8.75;;;;;;;;;;4994958;28;20113;-68
2022/10/22 06:51:44;;;;;;;20.92;10.02;;;;;;;;;;5010376;28;20526;-68
2022/10/22 06:54:11;;;;;;;27.33;10.85;;;;;;;;;;4995253;28;20065;-68
2022/10/22 06:56:36;;;;;;;27.20;10.65;;;;;;;;;;5007746;28;20545;-67
2022/10/22 06:59:02;;;;;;;22.55;10.68;;;;;;;;;;5003674;28;20042;-69
2022/10/22 07:01:30;;;;;;;22.33;10.43;;;;;;;;;;4990224;28;20077;-69
2022/10/22 07:03:56;;;;;;;24.20;10.65;;;;;;;;;;5001803;28;20046;-68
2022/10/22 07:06:22;;;;;;;19.88;11.10;;;;;;;;;;5014909;28;20041;-70
2022/10/22 07:08:48;;;;;;;22.05;11.10;;;;;;;;;;5004140;28;20038;-69
2022/10/22 07:11:16;;;;;;;20.92;10.68;;;;;;;;;;4998555;28;20061;-68
2022/10/22 07:13:42;;;;;;;16.55;9.55;;;;;;;;;;5007367;28;20041;-69
2022/10/22 07:16:07;;;;;;;20.67;9.50;;;;;;;;;;5014806;28;20034;-68
2022/10/22 07:18:34;;;;;;;17.63;9.75;;;;;;;;;;5003509;28;20355;-68
2022/10/22 07:20:59;;;;;;;18.33;9.85;;;;;;;;;;5015815;28;20029;-68
2022/10/22 07:23:25;;;;;;;16.50;9.13;;;;;;;;;;5008954;28;20569;-68
2022/10/22 07:25:51;;;;;;;17.33;8.25;;;;;;;;;;5014569;28;20371;-68
2022/10/22 07:28:17;;;;;;;13.80;8.57;;;;;;;;;;5013486;28;20076;-69
2022/10/22 07:30:42;;;;;;;18.85;8.20;;;;;;;;;;5015978;28;20036;-67
2022/10/22 07:33:08;;;;;;;15.57;7.60;;;;;;;;;;4999865;28;20030;-69
2022/10/22 07:35:36;;;;;;;14.55;7.80;;;;;;;;;;5003855;28;20034;-69
2022/10/22 07:38:02;;;;;;;14.35;7.78;;;;;;;;;;5006738;28;20109;-69
2022/10/22 07:40:27;;;;;;;14.65;6.97;;;;;;;;;;5004109;28;20117;-67
2022/10/22 07:42:53;;;;;;;15.35;6.72;;;;;;;;;;4997821;28;20069;-69
2022/10/22 07:45:18;;;;;;;14.20;6.60;;;;;;;;;;5007280;28;20045;-68
2022/10/22 07:47:43;;;;;;;13.32;6.18;;;;;;;;;;5006960;28;20467;-68
2022/10/22 07:50:09;;;;;;;12.43;5.45;;;;;;;;;;4998213;28;20049;-69
2022/10/22 07:52:34;;;;;;;13.60;5.32;;;;;;;;;;5013646;28;20049;-69
2022/10/22 07:55:00;;;;;;;16.40;5.03;;;;;;;;;;5012714;28;20100;-69
2022/10/22 07:57:25;;;;;;;12.85;4.68;;;;;;;;;;5007716;28;20045;-69
2022/10/22 07:59:51;;;;;;;10.65;4.47;;;;;;;;;;5003178;28;20364;-68
2022/10/22 08:02:16;;;;;;;11.65;4.20;;;;;;;;;;4996273;28;20038;-69
2022/10/22 08:04:42;;;;;;;6.82;3.30;;;;;;;;;;4998394;28;20034;-68
2022/10/22 08:07:07;;;;;;;8.60;3.53;;;;;;;;;;4994323;28;20389;-69
2022/10/22 08:09:33;;;;;;;9.63;3.75;;;;;;;;;;5004392;28;20033;-69
2022/10/22 08:11:58;;;;;;;12.52;4.05;;;;;;;;;;5012667;28;20033;-68
2022/10/22 08:14:24;;;;;;;11.73;3.25;;;;;;;;;;5012131;28;20206;-68
2022/10/22 08:16:49;;;;;;;9.07;3.25;;;;;;;;;;5001708;28;20065;-70
2022/10/22 08:19:19;;;;;;;7.90;3.08;;;;;;;;;;5011741;28;20514;-69
2022/10/22 08:21:45;;;;;;;8.30;2.60;;;;;;;;;;4999819;28;20429;-67
2022/10/22 08:24:11;;;;;;;7.20;3.00;;;;;;;;;;5013199;28;20133;-69
2022/10/22 08:26:37;;;;;;;6.30;2.97;;;;;;;;;;5011266;28;20100;-69
2022/10/22 08:29:02;;;;;;;9.98;3.03;;;;;;;;;;5003079;28;20088;-68
2022/10/22 08:31:28;;;;;;;7.35;2.40;;;;;;;;;;5012015;28;20164;-69
2022/10/22 08:33:53;;;;;;;11.27;2.90;;;;;;;;;;5012522;28;20056;-68
2022/10/22 08:36:19;;;;;;;10.98;2.67;;;;;;;;;;5008899;28;20433;-68
2022/10/22 08:38:44;;;;;;;8.95;2.80;;;;;;;;;;5003051;28;20046;-67
2022/10/22 08:41:16;;;;;;;6.50;2.40;;;;;;;;;;5006072;28;20356;-67
2022/10/22 08:43:51;;;;;;;5.55;1.90;;;;;;;;;;5007225;28;20025;-68
2022/10/22 08:46:24;;;;;;;7.15;2.65;;;;;;;;;;5011906;28;20041;-67
2022/10/22 08:48:57;;;;;;;6.97;2.30;;;;;;;;;;5012961;28;20030;-67
2022/10/22 08:51:26;;;;;;;7.50;2.30;;;;;;;;;;5013131;28;20030;-64
2022/10/22 08:54:18;;;;;;;15.68;2.92;;;;;;;;;;5007826;28;20068;-66
2022/10/22 08:56:50;;;;;;;7.63;2.28;;;;;;;;;;4993408;28;20121;-66
2022/10/22 08:59:31;;;;;;;7.55;2.15;;;;;;;;;;5000517;28;20033;-66
2022/10/22 09:01:56;;;;;;;8.10;2.83;;;;;;;;;;5008677;28;20035;-66
2022/10/22 09:04:31;;;;;;;14.68;2.50;;;;;;;;;;5011765;28;20057;-66
2022/10/22 09:06:58;;;;;;;6.28;2.25;;;;;;;;;;5006835;28;20368;-66
2022/10/22 09:09:30;;;;;;;7.88;2.20;;;;;;;;;;5010387;28;20076;-67
2022/10/22 09:11:58;;;;;;;8.43;2.30;;;;;;;;;;4992377;28;20058;-66
2022/10/22 09:14:25;;;;;;;8.85;2.28;;;;;;;;;;5003485;28;20393;-67
2022/10/22 09:17:15;;;;;;;8.82;2.10;;;;;;;;;;5013252;28;20143;-66
2022/10/22 09:20:10;;;;;;;9.15;2.33;;;;;;;;;;5011107;28;20034;-66
2022/10/22 09:22:51;;;;;;;8.45;2.38;;;;;;;;;;5011381;28;20056;-66
2022/10/22 09:25:22;;;;;;;5.78;1.90;;;;;;;;;;5010035;28;20066;-65
2022/10/22 09:27:49;;;;;;;10.52;2.38;;;;;;;;;;5004959;28;20033;-68
2022/10/22 09:30:21;;;;;;;7.55;2.05;;;;;;;;;;5004098;28;20037;-68
2022/10/22 09:32:53;;;;;;;7.15;2.40;;;;;;;;;;5009360;28;20398;-68
2022/10/22 09:35:23;;;;;;;9.27;2.17;;;;;;;;;;5011641;28;20451;-67
2022/10/22 09:37:50;;;;;;;13.15;2.40;;;;;;;;;;5010256;28;20449;-69
2022/10/22 09:40:17;;;;;;;10.43;2.47;;;;;;;;;;5007286;28;20436;-68
2022/10/22 09:42:45;;;;;;;7.97;2.10;;;;;;;;;;5002660;28;20030;-67
2022/10/22 09:45:16;;;;;;;6.97;2.05;;;;;;;;;;5012557;28;20034;-67
2022/10/22 09:47:42;;;;;;;9.18;2.30;;;;;;;;;;4984376;28;20026;-67
2022/10/22 09:50:18;;;;;;;9.77;2.20;;;;;;;;;;4973607;28;20486;-67
2022/10/22 09:52:43;;;;;;;8.02;2.40;;;;;;;;;;4991866;28;20026;-68
2022/10/22 09:55:17;;;;;;;15.15;2.20;;;;;;;;;;5010244;28;20034;-68
2022/10/22 09:57:43;;;;;;;8.57;2.00;;;;;;;;;;5010599;28;20030;-67
2022/10/22 10:00:11;;;;;;;6.90;1.98;;;;;;;;;;5002796;28;20136;-68
2022/10/22 10:02:41;;;;;;;9.63;2.10;;;;;;;;;;5012094;28;20049;-68
2022/10/22 10:05:07;;;;;;;7.28;2.03;;;;;;;;;;5006105;28;20526;-66
2022/10/22 10:07:34;;;;;;;7.28;1.70;;;;;;;;;;5011190;28;20029;-68
2022/10/22 10:10:00;;;;;;;9.25;1.95;;;;;;;;;;5007647;28;20426;-66
2022/10/22 10:12:56;;;;;;;7.85;1.77;;;;;;;;;;5008041;28;20120;-66
2022/10/22 10:15:32;;;;;;;6.35;2.08;;;;;;;;;;4999426;28;20034;-67
2022/10/22 10:18:10;;;;;;;6.05;2.20;;;;;;;;;;5001586;28;20474;-68
2022/10/22 10:20:40;;;;;;;5.95;1.77;;;;;;;;;;5004737;28;20053;-68
2022/10/22 10:23:24;;;;;;;6.93;1.80;;;;;;;;;;5009913;28;20453;-68
2022/10/22 10:26:08;;;;;;;4.15;1.70;;;;;;;;;;5009944;28;20041;-70
2022/10/22 10:28:58;;;;;;;10.85;1.80;;;;;;;;;;5008471;28;20030;-71
2022/10/22 10:31:56;;;;;;;6.43;1.88;;;;;;;;;;5000126;28;20471;-70
2022/10/22 10:34:35;;;;;;;7.93;1.65;;;;;;;;;;4980446;28;20041;-70
2022/10/22 10:37:29;;;;;;;6.93;1.92;;;;;;;;;;5010895;28;20033;-69
2022/10/22 10:39:55;;;;;;;5.55;1.80;;;;;;;;;;5002089;28;20040;-69
2022/10/22 10:42:41;;;;;;;7.45;1.70;;;;;;;;;;4982449;28;20382;-68
2022/10/22 10:45:11;;;;;;;9.10;2.28;;;;;;;;;;5006827;28;20034;-66
2022/10/22 10:47:58;;;;;;;7.32;1.50;;;;;;;;;;5009833;28;20034;-66
2022/10/22 10:50:27;;;;;;;8.35;1.85;;;;;;;;;;5005539;28;20065;-66
2022/10/22 10:52:55;;;;;;;7.95;2.17;;;;;;;;;;5009231;28;20118;-66
2022/10/22 10:55:38;;;;;;;5.50;1.98;;;;;;;;;;5010004;28;20121;-66
2022/10/22 10:58:20;;;;;;;4.32;1.83;;;;;;;;;;5012247;28;20069;-66
2022/10/22 11:01:28;;;;;;;4.57;1.67;;;;;;;;;;5012066;28;20052;-68
2022/10/22 11:04:28;;;;;;;7.88;1.85;;;;;;;;;;5005045;28;20105;-68
2022/10/22 11:06:59;;;;;;;7.35;1.50;;;;;;;;;;5000206;28;20041;-67
2022/10/22 11:09:31;;;;;;;5.78;1.60;;;;;;;;;;5010985;28;20371;-67
2022/10/22 11:12:01;;;;;;;6.13;1.80;;;;;;;;;;5009791;28;20065;-70
2022/10/22 11:14:36;;;;;;;5.65;1.60;;;;;;;;;;5010724;28;20034;-68
2022/10/22 11:17:14;;;;;;;10.00;1.80;;;;;;;;;;5004876;28;20034;-69
2022/10/22 11:20:06;;;;;;;5.60;1.80;;;;;;;;;;5004509;28;20039;-68
2022/10/22 11:22:46;;;;;;;4.60;1.50;;;;;;;;;;5007482;28;20082;-68
2022/10/22 11:25:11;;;;;;;7.82;2.10;;;;;;;;;;4985592;28;20038;-69
2022/10/22 11:27:52;;;;;;;5.05;1.55;;;;;;;;;;4997475;28;20082;-68
2022/10/22 11:30:23;;;;;;;5.38;1.70;;;;;;;;;;4991442;28;20038;-66
2022/10/22 11:32:56;;;;;;;5.93;1.52;;;;;;;;;;5000856;28;20121;-66
2022/10/22 11:35:25;;;;;;;4.07;1.60;;;;;;;;;;5010293;28;20041;-66
2022/10/22 11:37:53;;;;;;;5.32;1.30;;;;;;;;;;5010068;28;20554;-69
2022/10/22 11:40:39;;;;;;;8.48;1.80;;;;;;;;;;4992909;28;20383;-69
2022/10/22 11:43:07;;;;;;;6.20;1.48;;;;;;;;;;5005700;28;20084;-67
2022/10/22 11:45:35;;;;;;;5.55;1.38;;;;;;;;;;5007866;28;20105;-68
2022/10/22 11:48:10;;;;;;;6.68;1.50;;;;;;;;;;5002579;28;20457;-67
2022/10/22 11:50:53;;;;;;;5.25;1.63;;;;;;;;;;4992298;28;20861;-67
2022/10/22 11:53:29;;;;;;;4.95;1.67;;;;;;;;;;4994768;28;20035;-65
2022/10/22 11:55:58;;;;;;;9.25;1.80;;;;;;;;;;5004389;28;20088;-68
2022/10/22 11:58:27;;;;;;;5.78;1.48;;;;;;;;;;5013601;28;20029;-67
2022/10/22 12:01:13;;;;;;;6.40;1.45;;;;;;;;;;5014144;28;20030;-67
2022/10/22 12:03:57;;;;;;;9.43;1.52;;;;;;;;;;5002608;28;20121;-66
2022/10/22 12:06:25;;;;;;;5.53;1.70;;;;;;;;;;5011766;28;20022;-67
2022/10/22 12:08:53;;;;;;;5.40;1.60;;;;;;;;;;4985057;28;20027;-67
2022/10/22 12:11:20;;;;;;;5.95;1.50;;;;;;;;;;4975303;28;20054;-67
2022/10/22 12:13:52;;;;;;;3.78;1.58;;;;;;;;;;4990407;28;20410;-67
2022/10/22 12:16:18;;;;;;;7.07;1.40;;;;;;;;;;4975557;28;20035;-66
2022/10/22 12:18:44;;;;;;;8.43;1.63;;;;;;;;;;4974885;28;20062;-67
2022/10/22 12:21:14;;;;;;;4.80;1.50;;;;;;;;;;4979641;28;20073;-66
2022/10/22 12:23:40;;;;;;;6.30;1.40;;;;;;;;;;5009294;28;20054;-66
2022/10/22 12:26:24;;;;;;;4.35;1.30;;;;;;;;;;4975414;28;20498;-66
2022/10/22 12:28:49;;;;;;;3.95;1.30;;;;;;;;;;4975321;28;20109;-67
2022/10/22 12:31:16;;;;;;;7.95;1.70;;;;;;;;;;4975329;28;20115;-66
2022/10/22 12:33:41;;;;;;;4.38;1.40;;;;;;;;;;4974082;28;20033;-66
2022/10/22 12:36:14;;;;;;;7.07;1.50;;;;;;;;;;4975212;28;20034;-67
2022/10/22 12:38:45;;;;;;;6.25;1.50;;;;;;;;;;4980283;28;20092;-67
2022/10/22 12:41:11;;;;;;;8.02;1.67;;;;;;;;;;5011614;28;20058;-67
2022/10/22 12:43:38;;;;;;;5.82;1.63;;;;;;;;;;5013217;28;20076;-67
2022/10/22 12:46:04;;;;;;;6.30;1.70;;;;;;;;;;5014030;28;20026;-66
2022/10/22 12:48:34;;;;;;;7.20;1.50;;;;;;;;;;5012967;28;20033;-67
2022/10/22 12:51:02;;;;;;;6.35;1.60;;;;;;;;;;5014205;28;20477;-67
2022/10/22 12:53:36;;;;;;;7.03;1.85;;;;;;;;;;5013021;28;20026;-66
2022/10/22 12:56:15;;;;;;;5.85;1.80;;;;;;;;;;5007716;28;20033;-67
2022/10/22 12:58:48;;;;;;;6.00;1.63;;;;;;;;;;4991264;28;20180;-66
2022/10/22 13:01:16;;;;;;;4.78;1.27;;;;;;;;;;4991929;28;20029;-66
2022/10/22 13:03:50;;;;;;;6.65;1.60;;;;;;;;;;4991980;28;20030;-64
2022/10/22 13:06:18;;;;;;;6.78;1.50;;;;;;;;;;4986079;28;20054;-64
2022/10/22 13:09:22;;;;;;;7.95;1.35;;;;;;;;;;4992088;28;20173;-64
2022/10/22 13:11:51;;;;;;;8.85;1.60;;;;;;;;;;4991179;28;20081;-66
2022/10/22 13:14:28;;;;;;;7.18;1.58;;;;;;;;;;4992674;28;20141;-66
2022/10/22 13:17:11;;;;;;;5.43;1.65;;;;;;;;;;5002717;28;20065;-66
2022/10/22 13:19:45;;;;;;;3.28;1.40;;;;;;;;;;5004783;28;20063;-66
2022/10/22 13:22:33;;;;;;;6.35;1.40;;;;;;;;;;5007461;28;20064;-66
2022/10/22 13:25:21;;;;;;;6.35;1.40;;;;;;;;;;4982344;28;20535;-69
2022/10/22 13:27:48;;;;;;;9.00;1.67;;;;;;;;;;4994393;28;20061;-69
2022/10/22 13:30:26;;;;;;;4.75;1.67;;;;;;;;;;4988530;28;20037;-69
2022/10/22 13:32:55;;;;;;;4.68;1.40;;;;;;;;;;4991959;28;20030;-64
2022/10/22 13:35:23;;;;;;;4.78;1.40;;;;;;;;;;4991926;28;20034;-67
2022/10/22 13:37:49;;;;;;;7.07;1.30;;;;;;;;;;4979615;28;20364;-66
2022/10/22 13:40:15;;;;;;;5.03;1.67;;;;;;;;;;5002319;28;20040;-65
2022/10/22 13:42:40;;;;;;;5.85;1.70;;;;;;;;;;4992310;28;20061;-65
2022/10/22 13:45:06;;;;;;;5.82;1.33;;;;;;;;;;4992761;28;20030;-66
2022/10/22 13:47:32;;;;;;;4.18;1.50;;;;;;;;;;4992082;28;20042;-66
2022/10/22 13:50:01;;;;;;;5.38;1.65;;;;;;;;;;4993108;28;20045;-65
2022/10/22 13:52:40;;;;;;;6.15;1.92;;;;;;;;;;4991464;28;20034;-67
2022/10/22 13:55:18;;;;;;;6.22;1.60;;;;;;;;;;4993701;28;20192;-67
2022/10/22 13:57:44;;;;;;;6.15;1.48;;;;;;;;;;5007354;28;20054;-65
2022/10/22 14:00:13;;;;;;;5.20;1.50;;;;;;;;;;4990097;28;20032;-66
2022/10/22 14:02:39;;;;;;;4.53;1.52;;;;;;;;;;4991096;28;20566;-66
2022/10/22 14:05:08;;;;;;;5.35;1.60;;;;;;;;;;5003238;28;20038;-66
2022/10/22 14:07:34;;;;;;;5.63;1.98;;;;;;;;;;4981184;28;20383;-66
2022/10/22 14:10:00;;;;;;;5.50;1.63;;;;;;;;;;4992020;28;20026;-65
2022/10/22 14:12:27;;;;;;;6.28;1.65;;;;;;;;;;4984655;28;20093;-65
2022/10/22 14:14:52;;;;;;;7.30;1.70;;;;;;;;;;4988033;28;20535;-65
2022/10/22 14:17:18;;;;;;;4.93;1.48;;;;;;;;;;4988842;28;20034;-64
2022/10/22 14:19:46;;;;;;;5.32;1.42;;;;;;;;;;4999056;28;20157;-65
2022/10/22 14:22:19;;;;;;;4.63;1.50;;;;;;;;;;4988453;28;20043;-66
2022/10/22 14:24:45;;;;;;;4.95;1.40;;;;;;;;;;4987381;28;20066;-65
2022/10/22 14:27:13;;;;;;;6.10;1.40;;;;;;;;;;4973056;28;20035;-65
2022/10/22 14:29:39;;;;;;;4.88;1.80;;;;;;;;;;4972374;28;20472;-65
2022/10/22 14:32:20;;;;;;;5.45;1.50;;;;;;;;;;4973506;28;20065;-65
2022/10/22 14:34:46;;;;;;;4.93;1.55;;;;;;;;;;4989914;28;20575;-65
2022/10/22 14:37:19;;;;;;;4.35;1.48;;;;;;;;;;4998298;28;20117;-68
2022/10/22 14:39:50;;;;;;;5.30;1.27;;;;;;;;;;4989186;28;20034;-66
2022/10/22 14:42:16;;;;;;;;;;;;;;;;;;5007021;28;20064;-64
2022/10/22 14:44:42;;;;;;;5.50;1.40;;;;;;;;;;5000397;28;19913;-67
2022/10/22 14:47:07;;;;;;;4.75;1.30;;;;;;;;;;5010860;28;20439;-65
2022/10/22 14:49:33;;;;;;;3.83;1.10;;;;;;;;;;5009671;28;20443;-66
2022/10/22 14:51:58;;;;;;;2.78;1.20;;;;;;;;;;5010046;28;20542;-66